Time;durP1;ratioP1;P1;durP2;ratioP2;P2;SDS_P1;SDS_P2;PMS_P1;PMS_P2;Temp;Humidity;BMP_temperature;BMP_pressure;BME280_temperature;BME280_humidity;BME280_pressure;Samples;Min_cycle;Max_cycle;Signal;HPM_P1;HPM_P2
2022/09/23 00:01:07;;;;;;;2.40;2.25;;;;;;;;;;469337;253;26307;-67
2022/09/23 00:03:09;;;;;;;2.80;2.60;;;;;;;;;;471474;252;26405;-66
2022/09/23 00:05:11;;;;;;;2.40;2.30;;;;;;;;;;473549;251;26346;-66
2022/09/23 00:07:12;;;;;;;2.70;2.55;;;6.20;99.90;;;;;;475813;250;26941;-68
2022/09/23 00:09:13;;;;;;;3.05;2.85;;;6.30;99.90;;;;;;469322;253;27896;-67
2022/09/23 00:11:15;;;;;;;2.60;2.50;;;6.20;99.90;;;;;;471525;252;27569;-67
2022/09/23 00:13:16;;;;;;;2.70;2.50;;;6.20;99.90;;;;;;473541;250;27471;-71
2022/09/23 00:15:17;;;;;;;3.50;3.28;;;6.00;99.90;;;;;;467477;252;27438;-67
2022/09/23 00:17:18;;;;;;;2.85;2.65;;;5.90;99.90;;;;;;469257;253;27531;-68
2022/09/23 00:19:20;;;;;;;2.87;2.62;;;5.80;99.90;;;;;;471553;252;27436;-67
2022/09/23 00:21:21;;;;;;;2.70;2.60;;;5.90;99.90;;;;;;473462;251;27946;-67
2022/09/23 00:23:22;;;;;;;3.78;3.28;;;5.90;99.90;;;;;;467436;254;28007;-72
2022/09/23 00:25:24;;;;;;;2.65;2.50;;;6.00;99.90;;;;;;469340;253;27425;-68
2022/09/23 00:27:25;;;;;;;2.92;2.72;;;6.10;99.90;;;;;;471457;252;27458;-69
2022/09/23 00:29:26;;;;;;;2.62;2.42;;;6.20;99.90;;;;;;469356;251;27432;-70
2022/09/23 00:31:27;;;;;;;3.22;3.03;;;6.00;99.90;;;;;;471558;252;27490;-68
2022/09/23 00:33:28;;;;;;;3.03;2.80;;;5.90;99.90;;;;;;469353;251;27531;-70
2022/09/23 00:35:30;;;;;;;3.80;2.80;;;5.90;99.90;;;;;;471571;252;27427;-66
2022/09/23 00:37:31;;;;;;;3.00;2.80;;;5.90;99.90;;;;;;469278;251;27957;-69
2022/09/23 00:39:32;;;;;;;3.03;2.83;;;5.90;99.90;;;;;;471527;252;28632;-69
2022/09/23 00:41:34;;;;;;;3.25;2.87;;;5.90;99.90;;;;;;473550;249;27503;-67
2022/09/23 00:43:35;;;;;;;2.70;2.50;;;5.90;99.90;;;;;;467486;254;27542;-69
2022/09/23 00:45:36;;;;;;;3.08;2.87;;;6.00;99.90;;;;;;469319;253;27429;-67
2022/09/23 00:47:37;;;;;;;2.45;2.28;;;6.00;99.90;;;;;;471496;252;27453;-67
2022/09/23 00:49:38;;;;;;;2.78;2.55;;;6.00;99.90;;;;;;473574;250;28146;-70
2022/09/23 00:51:40;;;;;;;2.78;2.60;;;6.00;99.90;;;;;;467491;254;27436;-67
2022/09/23 00:53:41;;;;;;;3.30;3.03;;;5.80;99.90;;;;;;469323;253;27952;-68
2022/09/23 00:55:42;;;;;;;3.85;2.90;;;5.70;99.90;;;;;;471578;252;27888;-67
2022/09/23 00:57:43;;;;;;;4.25;3.75;;;5.60;99.90;;;;;;469270;251;27937;-67
2022/09/23 00:59:45;;;;;;;4.47;4.07;;;5.60;99.90;;;;;;471581;252;27447;-67
2022/09/23 01:01:48;;;;;;;4.25;3.85;;;5.70;99.90;;;;;;473435;250;27515;-68
2022/09/23 01:03:47;;;;;;;4.12;3.78;;;5.80;99.90;;;;;;467394;254;27466;-72
2022/09/23 01:05:49;;;;;;;3.53;3.22;;;5.90;99.90;;;;;;469350;253;27489;-69
2022/09/23 01:07:50;;;;;;;3.90;3.60;;;6.00;99.90;;;;;;471528;252;27478;-68
2022/09/23 01:09:51;;;;;;;3.75;3.45;;;6.10;99.90;;;;;;473579;250;27550;-70
2022/09/23 01:11:52;;;;;;;3.30;3.10;;;6.10;99.90;;;;;;467500;254;27882;-67
2022/09/23 01:13:54;;;;;;;2.87;2.70;;;6.10;99.90;;;;;;469326;253;27926;-67
2022/09/23 01:15:55;;;;;;;3.15;2.95;;;6.10;99.90;;;;;;471525;252;27500;-67
2022/09/23 01:17:56;;;;;;;6.00;3.00;;;5.90;99.90;;;;;;469284;251;27543;-70
2022/09/23 01:19:57;;;;;;;2.60;2.40;;;5.90;99.90;;;;;;471506;252;27558;-73
2022/09/23 01:22:00;;;;;;;2.50;2.40;;;5.80;99.90;;;;;;473221;250;27446;-69
2022/09/23 01:24:01;;;;;;;2.80;2.60;;;5.70;99.90;;;;;;467433;254;27458;-68
2022/09/23 01:26:02;;;;;;;3.00;2.80;;;5.80;99.90;;;;;;469199;253;27527;-71
2022/09/23 01:28:02;;;;;;;2.80;2.60;;;5.80;99.90;;;;;;471445;252;27888;-68
2022/09/23 01:30:04;;;;;;;2.62;2.53;;;5.80;99.90;;;;;;469344;251;28069;-67
2022/09/23 01:32:05;;;;;;;3.15;2.95;;;5.80;99.90;;;;;;471537;252;27434;-67
2022/09/23 01:34:06;;;;;;;2.70;2.60;;;5.90;99.90;;;;;;473502;250;27458;-68
2022/09/23 01:36:08;;;;;;;3.33;3.03;;;5.90;99.90;;;;;;467428;254;27514;-68
2022/09/23 01:38:09;;;;;;;2.80;2.70;;;5.90;99.90;;;;;;469326;253;27409;-67
2022/09/23 01:40:10;;;;;;;2.75;2.65;;;5.90;99.90;;;;;;471561;252;27532;-69
2022/09/23 01:42:11;;;;;;;2.42;2.33;;;5.90;99.90;;;;;;469322;251;27532;-67
2022/09/23 01:44:12;;;;;;;2.87;2.67;;;5.90;99.90;;;;;;471570;252;27452;-67
2022/09/23 01:46:14;;;;;;;2.35;2.25;;;5.80;99.90;;;;;;469268;251;28064;-72
2022/09/23 01:48:15;;;;;;;2.40;2.30;;;5.90;99.90;;;;;;471594;252;27870;-69
2022/09/23 01:52:36;;;;;;;3.00;2.80;;;5.70;99.90;;;;;;471570;252;27474;-71
2022/09/23 01:54:37;;;;;;;2.80;2.60;;;5.70;99.90;;;;;;469344;251;27492;-67
2022/09/23 01:56:38;;;;;;;2.70;2.50;;;5.70;99.90;;;;;;471492;252;27543;-67
2022/09/23 01:58:40;;;;;;;2.67;2.50;;;5.70;99.90;;;;;;469296;251;27521;-67
2022/09/23 02:00:41;;;;;;;2.90;2.70;;;5.70;99.90;;;;;;471520;252;28638;-67
2022/09/23 02:02:48;;;;;;;2.80;2.60;;;5.70;99.90;;;;;;470412;235;27821;-73
2022/09/23 02:04:44;;;;;;;2.80;2.60;;;5.80;99.90;;;;;;484019;245;27588;-69
2022/09/23 02:06:45;;;;;;;3.08;2.78;;;5.80;99.90;;;;;;484305;245;27598;-68
2022/09/23 02:08:46;;;;;;;2.95;2.75;;;5.80;99.90;;;;;;484400;245;27478;-67
2022/09/23 02:10:47;;;;;;;2.97;2.78;;;5.80;99.90;;;;;;484399;245;27612;-67
2022/09/23 02:12:51;;;;;;;2.85;2.65;;;5.70;99.90;;;;;;484440;245;27545;-71
2022/09/23 02:14:52;;;;;;;2.45;2.35;;;5.80;99.90;;;;;;484403;245;27650;-68
2022/09/23 02:16:54;;;;;;;2.95;2.75;;;5.80;99.90;;;;;;484332;245;27959;-67
2022/09/23 02:18:55;;;;;;;2.30;2.20;;;5.80;99.90;;;;;;484356;245;28088;-67
2022/09/23 02:20:56;;;;;;;2.50;2.30;;;5.80;99.90;;;;;;484405;245;27594;-67
2022/09/23 02:22:57;;;;;;;2.10;2.00;;;5.80;99.90;;;;;;484391;245;27619;-67
2022/09/23 02:24:59;;;;;;;2.80;2.60;;;5.80;99.90;;;;;;484421;245;27662;-73
2022/09/23 02:27:00;;;;;;;2.90;2.72;;;5.70;99.90;;;;;;484348;245;27527;-67
2022/09/23 02:29:01;;;;;;;2.70;2.50;;;5.70;99.90;;;;;;484415;245;27623;-66
2022/09/23 02:31:02;;;;;;;2.30;2.20;;;5.70;99.90;;;;;;484402;245;27487;-66
2022/09/23 02:33:04;;;;;;;2.45;2.35;;;5.70;99.90;;;;;;484408;245;27517;-67
2022/09/23 02:35:05;;;;;;;2.60;2.40;;;5.70;99.90;;;;;;484401;245;27984;-69
2022/09/23 02:37:06;;;;;;;2.47;2.37;;;5.70;99.90;;;;;;484344;245;27945;-68
2022/09/23 02:39:07;;;;;;;2.78;2.58;;;5.60;99.90;;;;;;484381;245;27606;-70
2022/09/23 02:41:09;;;;;;;2.55;2.35;;;5.60;99.90;;;;;;484396;245;27497;-68
2022/09/23 02:43:10;;;;;;;2.72;2.62;;;5.60;99.90;;;;;;484417;245;27603;-68
2022/09/23 02:45:11;;;;;;;2.47;2.33;;;5.60;99.90;;;;;;484390;245;27488;-70
2022/09/23 02:47:12;;;;;;;2.58;2.47;;;5.60;99.90;;;;;;484353;245;27489;-67
2022/09/23 02:49:14;;;;;;;2.47;2.37;;;5.60;99.90;;;;;;484403;245;27531;-67
2022/09/23 02:51:15;;;;;;;2.50;2.30;;;5.60;99.90;;;;;;484409;245;28033;-68
2022/09/23 02:53:16;;;;;;;2.12;2.03;;;5.60;99.90;;;;;;484411;245;27951;-67
2022/09/23 02:55:17;;;;;;;2.60;2.50;;;5.50;99.90;;;;;;484447;245;27533;-73
2022/09/23 02:57:19;;;;;;;2.55;2.40;;;5.60;99.90;;;;;;483654;245;27632;-67
2022/09/23 02:59:20;;;;;;;2.20;2.10;;;5.50;99.90;;;;;;484131;245;28179;-67
2022/09/23 03:01:21;;;;;;;2.20;2.10;;;5.50;99.90;;;;;;483773;245;27544;-67
2022/09/23 03:03:23;;;;;;;2.40;2.20;;;5.60;99.90;;;;;;484296;245;27501;-69
2022/09/23 03:05:24;;;;;;;2.30;2.20;;;5.50;99.90;;;;;;484273;245;27538;-68
2022/09/23 03:07:25;;;;;;;2.42;2.33;;;5.50;99.90;;;;;;484366;245;27501;-66
2022/09/23 03:09:26;;;;;;;2.50;2.37;;;5.40;99.90;;;;;;484407;245;27582;-67
2022/09/23 03:11:28;;;;;;;2.50;2.40;;;5.40;99.90;;;;;;484417;245;27525;-72
2022/09/23 03:13:29;;;;;;;2.30;2.20;;;5.40;99.90;;;;;;484374;245;27512;-68
2022/09/23 03:15:30;;;;;;;2.17;2.08;;;5.40;99.90;;;;;;484396;245;27615;-69
2022/09/23 03:17:31;;;;;;;2.60;2.40;;;5.40;99.90;;;;;;484348;245;27496;-67
2022/09/23 03:19:33;;;;;;;2.50;2.40;;;5.40;99.90;;;;;;484384;245;28113;-67
2022/09/23 03:21:34;;;;;;;2.00;1.90;;;5.40;99.90;;;;;;484387;245;28093;-71
2022/09/23 03:23:35;;;;;;;2.10;2.00;;;5.40;99.90;;;;;;484386;245;27488;-68
2022/09/23 03:25:36;;;;;;;2.45;2.35;;;5.40;99.90;;;;;;484391;245;27545;-69
2022/09/23 03:27:38;;;;;;;2.28;2.17;;;5.40;99.90;;;;;;484319;245;27501;-67
2022/09/23 03:29:39;;;;;;;2.30;2.20;;;5.40;99.90;;;;;;484369;245;27601;-69
2022/09/23 03:34:01;;;;;;;2.35;2.25;;;5.50;99.90;;;;;;463286;256;28048;-68
2022/09/23 03:38:23;;;;;;;2.17;2.08;;;5.50;99.90;;;;;;475557;250;27871;-68
2022/09/23 03:40:23;;;;;;;2.50;2.40;;;5.50;99.90;;;;;;475508;250;27572;-69
2022/09/23 03:42:24;;;;;;;2.22;2.12;;;5.50;99.90;;;;;;475435;250;27410;-68
2022/09/23 03:44:27;;;;;;;2.30;2.20;;;5.40;99.90;;;;;;475547;250;27489;-68
2022/09/23 03:46:29;;;;;;;2.33;2.22;;;5.30;99.90;;;;;;475336;250;27515;-70
2022/09/23 03:48:28;;;;;;;2.20;2.10;;;5.20;99.90;;;;;;475439;250;27526;-67
2022/09/23 03:50:29;;;;;;;2.15;2.05;;;6.20;99.90;;;;;;475516;250;27488;-69
2022/09/23 03:52:30;;;;;;;2.10;2.00;;;5.20;99.90;;;;;;475557;250;27390;-68
2022/09/23 03:54:32;;;;;;;2.35;2.25;;;5.20;99.90;;;;;;475562;250;28019;-69
2022/09/23 03:56:33;;;;;;;2.22;2.12;;;5.20;99.90;;;;;;475452;250;27984;-71
2022/09/23 03:58:34;;;;;;;2.83;2.62;;;5.20;99.90;;;;;;475535;250;27518;-68
2022/09/23 04:00:35;;;;;;;2.40;2.30;;;5.20;99.90;;;;;;475556;250;27438;-69
2022/09/23 04:02:37;;;;;;;2.40;2.30;;;5.20;99.90;;;;;;475526;250;27399;-68
2022/09/23 04:04:39;;;;;;;2.67;2.50;;;5.20;99.90;;;;;;475540;250;27378;-67
2022/09/23 04:06:39;;;;;;;2.60;2.47;;;5.20;99.90;;;;;;475401;250;27505;-69
2022/09/23 04:08:40;;;;;;;2.55;2.10;;;5.30;99.90;;;;;;475528;250;27394;-68
2022/09/23 04:10:42;;;;;;;2.40;2.20;;;5.30;99.90;;;;;;475562;250;27602;-68
2022/09/23 04:12:43;;;;;;;2.50;2.30;;;5.30;99.90;;;;;;475517;250;28465;-68
2022/09/23 04:14:44;;;;;;;2.33;2.22;;;5.40;99.90;;;;;;475539;250;27589;-67
2022/09/23 04:16:45;;;;;;;2.30;2.20;;;5.40;99.90;;;;;;475462;250;27496;-68
2022/09/23 04:18:47;;;;;;;2.10;2.00;;;5.40;99.90;;;;;;475548;250;27860;-70
2022/09/23 04:20:48;;;;;;;2.12;2.03;;;5.40;99.90;;;;;;475495;250;27877;-68
2022/09/23 04:22:49;;;;;;;2.30;2.20;;;5.40;99.90;;;;;;475496;250;27529;-71
2022/09/23 04:24:50;;;;;;;2.28;2.12;;;5.40;99.90;;;;;;475499;250;27477;-68
2022/09/23 04:26:52;;;;;;;2.20;2.10;;;5.40;99.90;;;;;;475414;250;27442;-68
2022/09/23 04:28:53;;;;;;;2.22;2.12;;;5.40;99.90;;;;;;475455;250;27426;-68
2022/09/23 04:30:56;;;;;;;2.95;2.75;;;5.30;99.90;;;;;;475503;250;27487;-68
2022/09/23 04:32:55;;;;;;;2.65;2.45;;;5.30;99.90;;;;;;475393;250;27458;-70
2022/09/23 04:34:57;;;;;;;2.70;2.50;;;5.30;99.90;;;;;;474962;250;27529;-68
2022/09/23 04:36:58;;;;;;;2.45;2.35;;;5.30;99.90;;;;;;474894;250;28018;-69
2022/09/23 04:38:59;;;;;;;2.70;2.50;;;5.30;99.90;;;;;;474918;250;27977;-67
2022/09/23 04:41:00;;;;;;;2.30;2.20;;;5.30;99.90;;;;;;474989;250;27485;-68
2022/09/23 04:43:02;;;;;;;2.30;2.20;;;5.30;99.90;;;;;;474990;250;27550;-68
2022/09/23 04:45:04;;;;;;;2.53;2.42;;;5.30;99.90;;;;;;474998;250;27539;-68
2022/09/23 04:47:04;;;;;;;2.50;2.30;;;5.30;99.90;;;;;;474811;250;27533;-68
2022/09/23 04:49:06;;;;;;;3.25;2.95;;;5.40;99.90;;;;;;474983;250;27547;-69
2022/09/23 04:51:07;;;;;;;2.42;2.33;;;5.30;99.90;;;;;;474991;250;27518;-68
2022/09/23 04:53:08;;;;;;;2.40;2.30;;;5.30;99.90;;;;;;474977;250;27531;-69
2022/09/23 04:55:09;;;;;;;2.40;2.30;;;5.30;99.90;;;;;;474976;250;27486;-68
2022/09/23 04:57:11;;;;;;;2.90;2.70;;;5.30;99.90;;;;;;474932;250;27967;-68
2022/09/23 04:59:12;;;;;;;2.33;2.22;;;5.30;99.90;;;;;;474970;250;28000;-71
2022/09/23 05:01:13;;;;;;;2.33;2.22;;;5.30;99.90;;;;;;474989;249;28156;-68
2022/09/23 05:03:14;;;;;;;2.15;2.05;;;5.30;99.90;;;;;;474978;250;27534;-69
2022/09/23 05:05:22;;;;;;;2.35;2.25;;;5.20;99.90;;;;;;474997;250;27484;-68
2022/09/23 05:07:17;;;;;;;2.40;2.30;;;5.20;99.90;;;;;;474625;250;27598;-69
2022/09/23 05:09:18;;;;;;;2.40;2.30;;;5.20;99.90;;;;;;474988;250;27562;-70
2022/09/23 05:11:19;;;;;;;2.87;2.72;;;5.20;99.90;;;;;;474989;250;27494;-67
2022/09/23 05:13:21;;;;;;;2.40;2.30;;;5.10;99.90;;;;;;475010;250;27590;-68
2022/09/23 05:15:22;;;;;;;3.20;3.00;;;5.00;99.90;;;;;;475010;250;27953;-69
2022/09/23 05:17:23;;;;;;;2.55;2.45;;;5.00;99.90;;;;;;474941;250;27991;-69
2022/09/23 05:19:24;;;;;;;2.50;2.40;;;5.00;99.90;;;;;;474942;250;28132;-69
2022/09/23 05:21:30;;;;;;;3.97;3.30;;;5.00;99.90;;;;;;475010;250;27506;-67
2022/09/23 05:23:30;;;;;;;2.70;2.60;;;4.90;99.90;;;;;;474957;250;27484;-68
2022/09/23 05:25:31;;;;;;;3.10;2.90;;;4.90;99.90;;;;;;475008;250;27576;-68
2022/09/23 05:27:33;;;;;;;2.92;2.83;;;4.80;99.90;;;;;;474948;250;27630;-71
2022/09/23 05:29:34;;;;;;;3.15;2.95;;;4.80;99.90;;;;;;474995;250;27506;-68
2022/09/23 05:31:35;;;;;;;3.20;3.10;;;4.90;99.90;;;;;;474966;250;27550;-68
2022/09/23 05:33:36;;;;;;;2.70;2.60;;;4.90;99.90;;;;;;474535;250;27504;-67
2022/09/23 05:35:38;;;;;;;3.20;3.00;;;5.00;99.90;;;;;;474673;250;27599;-68
2022/09/23 05:37:39;;;;;;;3.10;2.90;;;5.10;99.90;;;;;;474821;250;28014;-71
2022/09/23 05:39:40;;;;;;;3.00;2.85;;;5.10;99.90;;;;;;475036;250;28063;-68
2022/09/23 05:41:42;;;;;;;2.50;2.40;;;5.20;99.90;;;;;;474990;250;27543;-68
2022/09/23 05:43:43;;;;;;;2.90;2.70;;;5.20;99.90;;;;;;475013;249;27644;-68
2022/09/23 05:45:44;;;;;;;2.85;2.75;;;5.30;99.90;;;;;;475016;250;27476;-68
2022/09/23 05:47:45;;;;;;;2.80;2.67;;;5.30;99.90;;;;;;474968;250;27525;-71
2022/09/23 05:49:46;;;;;;;3.12;2.92;;;5.40;99.90;;;;;;475021;250;27496;-67
2022/09/23 05:51:48;;;;;;;2.70;2.50;;;5.40;99.90;;;;;;475025;250;27542;-69
2022/09/23 05:53:51;;;;;;;2.80;2.60;;;5.40;99.90;;;;;;475022;250;27491;-67
2022/09/23 05:55:50;;;;;;;2.40;2.30;;;5.50;99.90;;;;;;474821;250;27561;-67
2022/09/23 05:57:51;;;;;;;3.08;2.87;;;5.50;99.90;;;;;;474978;250;28007;-70
2022/09/23 05:59:53;;;;;;;2.97;2.78;;;5.50;99.90;;;;;;475042;250;28111;-70
2022/09/23 06:01:55;;;;;;;2.30;2.20;;;5.50;99.90;;;;;;474925;250;27590;-69
2022/09/23 06:03:55;;;;;;;2.70;2.50;;;5.50;99.90;;;;;;474886;250;27481;-67
2022/09/23 06:05:56;;;;;;;2.30;2.20;;;5.50;99.90;;;;;;474833;249;27630;-69
2022/09/23 06:07:58;;;;;;;2.83;2.53;;;5.50;99.90;;;;;;474181;250;27612;-69
2022/09/23 06:09:59;;;;;;;2.70;2.45;;;5.50;99.90;;;;;;474652;249;27518;-67
2022/09/23 06:12:00;;;;;;;2.80;2.60;;;5.50;99.90;;;;;;474990;250;27540;-68
2022/09/23 06:14:01;;;;;;;3.17;2.87;;;5.50;99.90;;;;;;474995;250;28012;-67
2022/09/23 06:16:03;;;;;;;2.80;2.60;;;5.50;99.90;;;;;;474942;250;28024;-73
2022/09/23 06:18:04;;;;;;;2.47;2.37;;;5.50;99.90;;;;;;474964;250;28008;-71
2022/09/23 06:20:05;;;;;;;3.25;2.95;;;5.50;99.90;;;;;;474986;250;27492;-66
2022/09/23 06:22:06;;;;;;;3.10;2.80;;;5.60;99.90;;;;;;474997;250;27521;-68
2022/09/23 06:24:08;;;;;;;2.80;2.60;;;5.60;99.90;;;;;;475002;250;27507;-69
2022/09/23 06:26:09;;;;;;;2.75;2.60;;;5.60;99.90;;;;;;474800;250;27605;-69
2022/09/23 06:28:11;;;;;;;2.53;2.33;;;5.60;99.90;;;;;;475002;250;27571;-72
2022/09/23 06:30:12;;;;;;;3.30;3.10;;;5.70;99.90;;;;;;474995;250;27502;-67
2022/09/23 06:32:13;;;;;;;3.00;2.72;;;5.70;99.90;;;;;;474998;250;28013;-69
2022/09/23 06:34:14;;;;;;;3.03;2.70;;;5.80;99.90;;;;;;475001;250;28085;-70
2022/09/23 06:36:15;;;;;;;2.67;2.47;;;5.70;99.90;;;;;;474875;250;27509;-70
2022/09/23 06:38:16;;;;;;;2.80;2.58;;;5.60;99.90;;;;;;474996;250;27535;-70
2022/09/23 06:40:18;;;;;;;2.85;2.60;;;5.80;99.90;;;;;;474988;249;27465;-69
2022/09/23 06:42:19;;;;;;;3.47;3.17;;;5.80;99.90;;;;;;474992;250;27527;-70
2022/09/23 06:44:20;;;;;;;3.17;2.97;;;5.90;99.90;;;;;;475005;250;27537;-68
2022/09/23 06:46:22;;;;;;;2.70;2.50;;;6.00;99.90;;;;;;474845;250;27510;-69
2022/09/23 06:48:26;;;;;;;3.17;2.90;;;6.10;99.90;;;;;;474996;250;28008;-68
2022/09/23 06:50:27;;;;;;;2.58;2.37;;;6.10;99.90;;;;;;475013;250;27513;-68
2022/09/23 06:52:28;;;;;;;2.28;2.15;;;6.10;99.90;;;;;;475025;250;27579;-67
2022/09/23 06:54:30;;;;;;;2.80;2.60;;;6.20;99.90;;;;;;475020;250;27537;-67
2022/09/23 06:56:31;;;;;;;2.65;2.55;;;6.30;99.90;;;;;;474857;249;27878;-71
2022/09/23 06:58:32;;;;;;;2.90;2.65;;;6.30;99.90;;;;;;475003;250;28012;-67
2022/09/23 07:00:33;;;;;;;2.85;2.65;;;6.40;99.90;;;;;;475016;250;27995;-68
2022/09/23 07:02:36;;;;;;;2.55;2.35;;;;;;;;;;475021;250;27486;-67
2022/09/23 07:04:37;;;;;;;2.67;2.47;;;6.60;99.90;;;;;;475018;250;26429;-68
2022/09/23 07:06:39;;;;;;;2.97;2.67;;;6.70;99.90;;;;;;474815;250;29318;-70
2022/09/23 07:08:40;;;;;;;3.00;2.80;;;6.70;99.90;;;;;;474993;249;28190;-69
2022/09/23 07:10:41;;;;;;;3.40;3.20;;;6.80;99.90;;;;;;475044;250;28087;-72
2022/09/23 07:12:42;;;;;;;2.83;2.70;;;6.90;99.90;;;;;;475009;250;28879;-67
2022/09/23 07:14:44;;;;;;;2.58;2.47;;;7.00;99.90;;;;;;475024;250;27609;-68
2022/09/23 07:16:45;;;;;;;2.90;2.60;;;7.00;99.90;;;;;;474854;250;27579;-67
2022/09/23 07:18:46;;;;;;;3.10;2.90;;;7.10;99.90;;;;;;475005;249;28263;-68
2022/09/23 07:20:47;;;;;;;2.55;2.45;;;7.10;99.90;;;;;;475009;250;28079;-70
2022/09/23 07:22:49;;;;;;;3.77;2.80;;;7.10;99.90;;;;;;475008;250;27612;-69
2022/09/23 07:24:50;;;;;;;3.00;2.80;;;7.20;99.90;;;;;;474983;250;28651;-70
2022/09/23 07:26:51;;;;;;;3.27;3.07;;;7.20;99.90;;;;;;474812;250;27613;-69
2022/09/23 07:28:53;;;;;;;2.63;2.43;;;7.30;99.90;;;;;;475002;250;28433;-70
2022/09/23 07:30:54;;;;;;;3.25;3.05;;;7.40;99.90;;;;;;474917;250;28498;-71
2022/09/23 07:32:55;;;;;;;3.77;3.57;;;7.40;99.90;;;;;;475010;250;28009;-69
2022/09/23 07:34:56;;;;;;;3.33;3.20;;;7.40;99.90;;;;;;475011;250;27663;-70
2022/09/23 07:36:57;;;;;;;3.10;2.90;;;7.50;99.90;;;;;;474914;250;27487;-69
2022/09/23 07:39:02;;;;;;;3.50;3.30;;;7.50;99.90;;;;;;474812;250;27842;-69
2022/09/23 07:41:03;;;;;;;2.90;2.80;;;7.60;99.90;;;;;;474969;250;27538;-69
2022/09/23 07:43:05;;;;;;;3.10;2.90;;;7.60;99.90;;;;;;475004;250;28723;-72
2022/09/23 07:45:05;;;;;;;3.17;2.90;;;7.70;99.90;;;;;;474978;250;27789;-68
2022/09/23 07:47:06;;;;;;;3.10;2.90;;;7.70;99.90;;;;;;474907;250;28004;-71
2022/09/23 07:49:09;;;;;;;3.40;3.20;;;7.70;99.90;;;;;;475007;250;27699;-68
2022/09/23 07:51:09;;;;;;;3.03;2.83;;;7.80;99.90;;;;;;474940;250;28558;-69
2022/09/23 07:53:12;;;;;;;3.50;3.30;;;7.80;99.90;;;;;;475007;250;28602;-70
2022/09/23 07:55:13;;;;;;;3.00;2.90;;;7.80;99.90;;;;;;474898;250;28513;-69
2022/09/23 07:57:13;;;;;;;2.93;2.77;;;7.90;99.90;;;;;;474812;250;28827;-70
2022/09/23 07:59:15;;;;;;;3.20;2.93;;;7.90;99.90;;;;;;475002;250;28341;-70
2022/09/23 08:01:15;;;;;;;3.60;2.93;;;7.90;99.90;;;;;;474939;250;28005;-69
2022/09/23 08:03:16;;;;;;;3.13;2.83;;;7.90;99.90;;;;;;475007;250;28070;-70
2022/09/23 08:05:18;;;;;;;3.00;2.80;;;7.90;99.90;;;;;;475015;250;27976;-70
2022/09/23 08:07:19;;;;;;;3.30;3.10;;;8.00;99.90;;;;;;474833;250;27946;-72
2022/09/23 08:09:20;;;;;;;3.40;3.20;;;8.10;99.90;;;;;;475001;250;27975;-69
2022/09/23 08:11:23;;;;;;;3.30;3.10;;;8.10;99.90;;;;;;475009;250;28076;-69
2022/09/23 08:13:23;;;;;;;3.30;3.10;;;8.20;99.90;;;;;;474906;250;27834;-69
2022/09/23 08:15:24;;;;;;;2.87;2.67;;;8.30;99.90;;;;;;475013;250;27900;-69
2022/09/23 08:17:25;;;;;;;3.43;3.13;;;8.30;99.90;;;;;;474724;250;28535;-72
2022/09/23 08:19:26;;;;;;;3.03;2.83;;;8.50;99.90;;;;;;475015;250;27867;-69
2022/09/23 08:21:28;;;;;;;3.10;2.90;;;8.50;99.90;;;;;;474996;250;27975;-69
2022/09/23 08:23:32;;;;;;;3.30;3.10;;;8.60;99.90;;;;;;474949;250;28329;-73
2022/09/23 08:25:31;;;;;;;3.00;2.80;;;8.90;99.90;;;;;;474805;250;27991;-70
2022/09/23 08:27:31;;;;;;;2.63;2.53;;;9.00;99.90;;;;;;474743;250;27990;-71
2022/09/23 08:29:33;;;;;;;2.80;2.70;;;9.10;99.90;;;;;;475007;250;28126;-69
2022/09/23 08:31:34;;;;;;;2.80;2.70;;;9.30;99.90;;;;;;474995;250;28438;-70
2022/09/23 08:33:35;;;;;;;3.20;2.93;;;9.40;99.90;;;;;;474992;250;28565;-73
2022/09/23 08:35:36;;;;;;;2.73;2.63;;;9.40;99.90;;;;;;475001;250;28517;-69
2022/09/23 08:37:38;;;;;;;2.90;2.60;;;9.60;99.90;;;;;;474933;250;28425;-70
2022/09/23 08:39:39;;;;;;;2.97;2.83;;;9.70;99.90;;;;;;475049;250;28005;-69
2022/09/23 08:41:40;;;;;;;2.70;2.60;;;9.90;99.90;;;;;;475054;249;27990;-70
2022/09/23 08:43:44;;;;;;;2.73;2.53;;;10.20;99.90;;;;;;475055;250;28046;-73
2022/09/23 08:45:43;;;;;;;3.03;2.83;;;10.10;99.90;;;;;;474891;250;27697;-70
2022/09/23 08:47:44;;;;;;;2.70;2.50;;;10.10;99.90;;;;;;474938;250;27996;-71
2022/09/23 08:49:45;;;;;;;2.67;2.57;;;10.10;99.90;;;;;;475043;250;28032;-69
2022/09/23 08:51:47;;;;;;;3.10;2.90;;;10.30;99.90;;;;;;475006;250;28019;-69
2022/09/23 08:53:48;;;;;;;2.70;2.50;;;10.30;99.90;;;;;;475033;250;27982;-73
2022/09/23 08:55:49;;;;;;;2.83;2.60;;;10.60;99.90;;;;;;475021;250;28064;-70
2022/09/23 08:57:50;;;;;;;2.77;2.37;;;10.60;99.90;;;;;;474831;250;28007;-70
2022/09/23 08:59:51;;;;;;;2.50;2.40;;;10.70;99.90;;;;;;475033;250;28537;-70
2022/09/23 09:01:53;;;;;;;2.60;2.40;;;10.80;99.90;;;;;;475038;250;28484;-70
2022/09/23 09:03:54;;;;;;;3.00;2.70;;;10.90;99.90;;;;;;475046;250;28588;-73
2022/09/23 09:05:55;;;;;;;3.03;2.83;;;11.00;99.90;;;;;;475003;250;27742;-70
2022/09/23 09:07:56;;;;;;;2.87;2.67;;;11.20;99.90;;;;;;474915;250;27888;-71
2022/09/23 09:09:58;;;;;;;2.73;2.53;;;11.20;99.90;;;;;;475009;250;27785;-69
2022/09/23 09:12:01;;;;;;;2.63;2.43;;;11.40;99.90;;;;;;475031;250;27839;-69
2022/09/23 09:14:00;;;;;;;2.60;2.50;;;11.30;99.90;;;;;;474856;250;28004;-69
2022/09/23 09:16:04;;;;;;;2.73;2.53;;;11.40;99.90;;;;;;474984;250;28044;-71
2022/09/23 09:18:03;;;;;;;3.53;2.80;;;11.40;99.90;;;;;;474801;250;27993;-70
2022/09/23 09:20:04;;;;;;;2.97;2.70;;;11.40;99.90;;;;;;475000;250;27961;-69
2022/09/23 09:22:05;;;;;;;2.53;2.43;;;11.40;99.90;;;;;;474999;250;28137;-70
2022/09/23 09:24:06;;;;;;;3.07;2.87;;;11.40;99.90;;;;;;474983;250;28677;-69
2022/09/23 09:26:08;;;;;;;2.83;2.70;;;11.50;99.90;;;;;;474975;250;28409;-69
2022/09/23 09:28:09;;;;;;;2.30;2.20;;;11.70;99.90;;;;;;474014;250;47641;-70
2022/09/23 09:30:10;;;;;;;2.93;2.73;;;11.70;99.90;;;;;;475026;250;27593;-69
2022/09/23 09:32:12;;;;;;;2.50;2.40;;;11.80;99.90;;;;;;475036;250;27837;-70
2022/09/23 09:34:14;;;;;;;2.50;2.30;;;11.90;99.90;;;;;;474986;250;28178;-70
2022/09/23 09:36:14;;;;;;;2.60;2.50;;;11.90;99.90;;;;;;474901;250;28245;-70
2022/09/23 09:38:15;;;;;;;3.53;2.80;;;11.90;99.90;;;;;;475045;250;28155;-72
2022/09/23 09:40:17;;;;;;;2.70;2.50;;;12.10;99.90;;;;;;474972;250;28209;-70
2022/09/23 09:42:19;;;;;;;2.53;2.40;;;12.20;99.90;;;;;;474949;250;28256;-72
2022/09/23 09:44:19;;;;;;;2.50;2.30;;;12.10;99.90;;;;;;474987;250;28099;-70
2022/09/23 09:46:21;;;;;;;2.20;2.10;;;12.10;99.90;;;;;;474950;250;28220;-70
2022/09/23 09:48:21;;;;;;;2.00;1.90;;;12.20;99.90;;;;;;474978;250;28982;-71
2022/09/23 09:50:23;;;;;;;2.13;2.03;;;12.40;99.90;;;;;;475007;250;28696;-70
2022/09/23 09:52:25;;;;;;;2.60;2.40;;;12.50;99.90;;;;;;475054;250;28659;-70
2022/09/23 09:54:26;;;;;;;2.70;2.50;;;12.70;99.90;;;;;;475010;250;28750;-70
2022/09/23 09:56:27;;;;;;;2.50;2.40;;;12.70;99.90;;;;;;474975;250;28376;-70
2022/09/23 09:58:30;;;;;;;2.53;2.43;;;12.70;99.90;;;;;;475027;249;28593;-73
2022/09/23 10:00:29;;;;;;;2.23;1.73;;;12.90;99.90;;;;;;474898;250;28330;-71
2022/09/23 10:02:30;;;;;;;2.33;2.20;;;12.90;99.90;;;;;;475012;250;28420;-72
2022/09/23 10:04:32;;;;;;;2.40;2.30;;;12.90;99.90;;;;;;475003;250;28334;-70
2022/09/23 10:06:33;;;;;;;2.80;2.60;;;12.90;99.90;;;;;;474969;250;28419;-70
2022/09/23 10:08:34;;;;;;;2.40;2.30;;;13.00;99.90;;;;;;475020;250;28326;-71
2022/09/23 10:10:35;;;;;;;2.73;2.53;;;13.40;99.90;;;;;;475013;250;28515;-70
2022/09/23 10:12:36;;;;;;;2.57;2.47;;;13.50;99.90;;;;;;475021;250;28680;-71
2022/09/23 10:14:38;;;;;;;4.33;2.57;;;13.60;99.90;;;;;;475005;250;29503;-71
2022/09/23 10:16:42;;;;;;;2.47;2.37;;;13.70;99.90;;;;;;474966;250;28654;-70
2022/09/23 10:18:43;;;;;;;2.50;2.30;;;13.70;99.90;;;;;;474971;250;28543;-70
2022/09/23 10:20:45;;;;;;;2.30;2.07;;;13.70;99.90;;;;;;474919;250;28327;-71
2022/09/23 10:22:47;;;;;;;2.10;1.90;;;;;;;;;;475007;250;28838;-70
2022/09/23 10:24:48;;;;;;;2.57;2.37;;;13.70;99.90;;;;;;474988;249;27797;-70
2022/09/23 10:26:49;;;;;;;2.40;2.23;;;13.90;99.90;;;;;;474954;249;28363;-73
2022/09/23 10:28:52;;;;;;;2.07;1.97;;;;;;;;;;475018;250;28564;-71
2022/09/23 10:30:53;;;;;;;2.30;2.17;;;14.10;99.90;;;;;;475005;249;26738;-71
2022/09/23 10:32:55;;;;;;;2.17;2.00;;;14.00;99.90;;;;;;474998;250;28464;-70
2022/09/23 10:34:56;;;;;;;2.20;2.00;;;14.10;99.90;;;;;;474978;250;28199;-71
2022/09/23 10:36:57;;;;;;;2.40;2.10;;;14.20;99.90;;;;;;474961;250;28304;-71
2022/09/23 10:46:37;;;;;;;2.03;1.90;;;14.20;99.90;;;;;;475023;250;28203;-70
2022/09/23 10:47:58;;;;;;;2.30;2.20;;;14.60;99.90;;;;;;474962;250;28307;-70
2022/09/23 10:50:00;;;;;;;2.20;2.00;;;14.60;99.90;;;;;;474994;250;28469;-71
2022/09/23 10:52:01;;;;;;;2.50;2.30;;;14.60;99.90;;;;;;475005;250;28475;-70
2022/09/23 10:54:02;;;;;;;2.10;1.90;;;14.60;99.90;;;;;;475008;250;28821;-70